Time;durP1;ratioP1;P1;durP2;ratioP2;P2;SDS_P1;SDS_P2;PMS_P1;PMS_P2;Temp;Humidity;BMP_temperature;BMP_pressure;BME280_temperature;BME280_humidity;BME280_pressure;Samples;Min_cycle;Max_cycle;Signal;HPM_P1;HPM_P2
2022/09/16 00:00:28;;;;;;;2.60;1.70;;;;;;;;;;5118756;27;20450;-70
2022/09/16 00:02:55;;;;;;;7.80;2.77;;;;;;;;;;5118956;27;20708;-70
2022/09/16 00:05:23;;;;;;;4.00;2.30;;;;;;;;;;5118591;27;20446;-70
2022/09/16 00:07:50;;;;;;;5.30;2.00;;;;;;;;;;5117726;27;20535;-70
2022/09/16 00:10:17;;;;;;;4.60;1.90;;;;;;;;;;5118253;27;20450;-70
2022/09/16 00:12:45;;;;;;;8.67;2.90;;;;;;;;;;5119670;27;20497;-68
2022/09/16 00:15:12;;;;;;;5.20;2.37;;;;;;;;;;5118177;27;20435;-68
2022/09/16 00:17:39;;;;;;;3.93;2.93;;;;;;;;;;5119662;27;20859;-70
2022/09/16 00:20:09;;;;;;;5.03;2.63;;;;;;;;;;5118351;27;20454;-70
2022/09/16 00:22:37;;;;;;;5.73;2.70;;;;;;;;;;5119562;27;20939;-70
2022/09/16 00:25:05;;;;;;;4.10;2.70;;;;;;;;;;5119307;27;20454;-70
2022/09/16 00:27:32;;;;;;;5.83;2.53;;;;;;;;;;5117829;27;20447;-70
2022/09/16 00:29:59;;;;;;;4.83;2.77;;;;;;;;;;5119687;27;20874;-69
2022/09/16 00:32:26;;;;;;;6.00;3.23;;;;;;;;;;5118093;27;20497;-70
2022/09/16 00:34:53;;;;;;;6.47;2.87;;;;;;;;;;5117906;27;20451;-69
2022/09/16 00:37:20;;;;;;;6.23;2.87;;;;;;;;;;5118265;27;20446;-70
2022/09/16 00:39:48;;;;;;;4.20;2.17;;;;;;;;;;5118606;27;20537;-70
2022/09/16 00:42:23;;;;;;;6.30;2.87;;;;;;;;;;5117755;27;20461;-70
2022/09/16 00:44:55;;;;;;;7.60;2.63;;;;;;;;;;5118388;27;20523;-70
2022/09/16 00:47:24;;;;;;;7.57;2.43;;;;;;;;;;5118939;27;20520;-69
2022/09/16 00:49:52;;;;;;;8.67;2.73;;;;;;;;;;5118135;27;20451;-70
2022/09/16 00:52:19;;;;;;;7.87;2.13;;;;;;;;;;5118092;27;20552;-69
2022/09/16 00:54:46;;;;;;;6.10;2.03;;;;;;;;;;5117197;27;20461;-70
2022/09/16 00:57:15;;;;;;;5.00;1.57;;;;;;;;;;5118479;27;20477;-70
2022/09/16 00:59:44;;;;;;;3.17;1.80;;;;;;;;;;5117207;27;20564;-70
2022/09/16 01:02:12;;;;;;;5.20;1.83;;;;;;;;;;5117631;27;20537;-70
2022/09/16 01:04:42;;;;;;;5.53;2.30;;;;;;;;;;5118761;27;20908;-70
2022/09/16 01:07:12;;;;;;;6.23;1.60;;;;;;;;;;5125200;27;20723;-70
2022/09/16 01:09:40;;;;;;;4.53;1.63;;;;;;;;;;5138365;27;20560;-69
2022/09/16 01:12:07;;;;;;;2.73;1.50;;;;;;;;;;5138534;27;20770;-70
2022/09/16 01:14:54;;;;;;;2.73;1.33;;;;;;;;;;5138098;27;20493;-70
2022/09/16 01:17:27;;;;;;;3.73;1.40;;;;;;;;;;5137435;27;20996;-69
2022/09/16 01:20:12;;;;;;;4.53;2.03;;;;;;;;;;5137273;27;20524;-70
2022/09/16 01:22:46;;;;;;;3.00;1.37;;;;;;;;;;5136583;27;20442;-70
2022/09/16 01:25:21;;;;;;;2.10;1.37;;;;;;;;;;5135617;27;20929;-70
2022/09/16 01:27:58;;;;;;;4.40;2.20;;;;;;;;;;5136238;27;20544;-70
2022/09/16 01:30:46;;;;;;;3.90;2.40;;;;;;;;;;5136388;27;20446;-70
2022/09/16 01:33:18;;;;;;;4.63;1.70;;;;;;;;;;5107115;28;20485;-70
2022/09/16 01:35:52;;;;;;;4.80;2.60;;;;;;;;;;5136463;27;20454;-70
2022/09/16 01:38:25;;;;;;;3.93;1.63;;;;;;;;;;5139060;27;20461;-70
2022/09/16 01:40:55;;;;;;;6.97;2.17;;;;;;;;;;5138391;27;20474;-70
2022/09/16 01:43:24;;;;;;;3.80;2.53;;;;;;;;;;5137001;27;20548;-70
2022/09/16 01:45:54;;;;;;;4.83;2.53;;;;;;;;;;5135743;27;20510;-70
2022/09/16 01:48:24;;;;;;;4.00;2.57;;;;;;;;;;5136392;27;20850;-70
2022/09/16 01:50:53;;;;;;;3.10;2.20;;;;;;;;;;5136777;27;20813;-70
2022/09/16 01:53:27;;;;;;;2.83;2.30;;;;;;;;;;5136298;27;20837;-70
2022/09/16 01:55:58;;;;;;;4.60;2.30;;;;;;;;;;5135850;27;20811;-70
2022/09/16 01:58:28;;;;;;;4.13;2.80;;;;;;;;;;5136137;27;20710;-70
2022/09/16 02:00:58;;;;;;;4.70;3.07;;;;;;;;;;5132174;27;20450;-70
2022/09/16 02:03:28;;;;;;;6.93;3.50;;;;;;;;;;5136633;27;20483;-70
2022/09/16 02:06:00;;;;;;;5.33;3.50;;;;;;;;;;5135344;27;20449;-70
2022/09/16 02:08:30;;;;;;;7.53;3.93;;;;;;;;;;5135257;27;20553;-70
2022/09/16 02:10:58;;;;;;;12.30;5.23;;;;;;;;;;5126925;27;20466;-70
2022/09/16 02:13:28;;;;;;;8.90;6.00;;;;;;;;;;5115130;27;20600;-70
2022/09/16 02:15:56;;;;;;;8.27;5.43;;;;;;;;;;5115173;27;20511;-70
2022/09/16 02:18:25;;;;;;;10.40;5.80;;;;;;;;;;5115299;27;20553;-70
2022/09/16 02:20:55;;;;;;;7.27;6.10;;;;;;;;;;5114263;27;20904;-70
2022/09/16 02:23:24;;;;;;;6.67;5.43;;;;;;;;;;5113638;27;20451;-70
2022/09/16 02:25:51;;;;;;;7.53;5.87;;;;;;;;;;5113653;27;20454;-70
2022/09/16 02:28:21;;;;;;;8.83;5.57;;;;;;;;;;5113896;27;20721;-70
2022/09/16 02:30:50;;;;;;;8.67;5.57;;;;;;;;;;5114278;27;20451;-70
2022/09/16 02:33:18;;;;;;;10.63;4.93;;;;;;;;;;5134409;27;20616;-70
2022/09/16 02:35:46;;;;;;;7.87;5.80;;;;;;;;;;5134607;27;20454;-70
2022/09/16 02:38:15;;;;;;;6.77;5.73;;;;;;;;;;5135372;27;20458;-70
2022/09/16 02:40:51;;;;;;;8.07;4.77;;;;;;;;;;5117924;27;20467;-70
2022/09/16 02:43:18;;;;;;;8.30;5.13;;;;;;;;;;5114831;27;20473;-70
2022/09/16 02:45:47;;;;;;;10.23;5.00;;;;;;;;;;5115033;27;20458;-70
2022/09/16 02:48:17;;;;;;;7.13;4.77;;;;;;;;;;5114259;27;20882;-69
2022/09/16 02:50:48;;;;;;;6.70;5.07;;;;;;;;;;5113214;27;20482;-70
2022/09/16 02:53:21;;;;;;;6.53;4.80;;;;;;;;;;5115511;27;20599;-70
2022/09/16 02:55:52;;;;;;;7.20;4.97;;;;;;;;;;5113823;27;20503;-70
2022/09/16 02:58:19;;;;;;;7.37;5.40;;;;;;;;;;5115481;27;20461;-70
2022/09/16 03:00:48;;;;;;;6.80;4.47;;;;;;;;;;5113490;27;20473;-70
2022/09/16 03:03:15;;;;;;;7.37;3.70;;;;;;;;;;5115088;27;20462;-70
2022/09/16 03:05:59;;;;;;;4.20;3.30;;;;;;;;;;5115518;27;20447;-70
2022/09/16 03:08:27;;;;;;;5.63;4.37;;;;;;;;;;5115186;27;20458;-70
2022/09/16 03:10:54;;;;;;;7.63;4.00;;;;;;;;;;5115147;27;20469;-70
2022/09/16 03:13:26;;;;;;;6.73;3.40;;;;;;;;;;5115339;27;20493;-70
2022/09/16 03:15:59;;;;;;;8.63;3.30;;;;;;;;;;5115584;27;20511;-70
2022/09/16 03:18:50;;;;;;;4.70;3.03;;;;;;;;;;5123739;27;20983;-70
2022/09/16 03:21:21;;;;;;;4.70;3.00;;;;;;;;;;5135235;27;20442;-70
2022/09/16 03:23:57;;;;;;;7.97;2.40;;;;;;;;;;5135601;27;20517;-71
2022/09/16 03:26:28;;;;;;;5.67;2.90;;;;;;;;;;5135964;27;20490;-70
2022/09/16 03:29:03;;;;;;;5.53;3.10;;;;;;;;;;5136871;27;20464;-70
2022/09/16 03:31:32;;;;;;;6.10;2.60;;;;;;;;;;5135757;27;21001;-70
2022/09/16 03:34:05;;;;;;;6.03;3.30;;;;;;;;;;5136744;27;20511;-69
2022/09/16 03:36:34;;;;;;;5.70;3.30;;;;;;;;;;5137483;27;20528;-70
2022/09/16 03:39:03;;;;;;;6.47;3.37;;;;;;;;;;5119703;27;20458;-69
2022/09/16 03:41:31;;;;;;;8.40;3.30;;;;;;;;;;5117216;27;20457;-69
2022/09/16 03:43:59;;;;;;;3.90;2.77;;;;;;;;;;5119761;27;20761;-69
2022/09/16 03:46:27;;;;;;;6.93;3.70;;;;;;;;;;5118378;27;20454;-69
2022/09/16 03:48:55;;;;;;;7.07;3.63;;;;;;;;;;5118529;27;20720;-69
2022/09/16 03:51:22;;;;;;;4.40;3.53;;;;;;;;;;5118553;27;20849;-69
2022/09/16 03:53:50;;;;;;;9.00;4.57;;;;;;;;;;5127810;27;20501;-69
2022/09/16 03:56:18;;;;;;;6.23;2.93;;;;;;;;;;5118915;27;20474;-69
2022/09/16 03:58:45;;;;;;;5.47;3.30;;;;;;;;;;5118080;27;20465;-69
2022/09/16 04:01:13;;;;;;;8.13;3.70;;;;;;;;;;5117641;27;20882;-69
2022/09/16 04:03:40;;;;;;;7.23;3.70;;;;;;;;;;5119345;27;20500;-69
2022/09/16 04:06:07;;;;;;;5.30;3.70;;;;;;;;;;5117994;27;20534;-69
2022/09/16 04:08:34;;;;;;;7.63;4.60;;;;;;;;;;5119578;27;20485;-69
2022/09/16 04:11:04;;;;;;;7.57;4.30;;;;;;;;;;5118327;27;20454;-69
2022/09/16 04:13:32;;;;;;;7.23;4.37;;;;;;;;;;5118728;27;20752;-69
2022/09/16 04:15:59;;;;;;;5.27;3.83;;;;;;;;;;5117340;27;20812;-69
2022/09/16 04:18:26;;;;;;;8.17;4.87;;;;;;;;;;5119092;27;20770;-70
2022/09/16 04:20:56;;;;;;;6.90;5.40;;;;;;;;;;5119536;27;20462;-70
2022/09/16 04:23:29;;;;;;;11.10;4.23;;;;;;;;;;5117117;27;20502;-70
2022/09/16 04:25:57;;;;;;;8.10;5.10;;;;;;;;;;5116877;27;20508;-70
2022/09/16 04:28:25;;;;;;;7.57;5.83;;;;;;;;;;5116223;27;20450;-70
2022/09/16 04:30:53;;;;;;;9.63;5.57;;;;;;;;;;5116383;27;20779;-70
2022/09/16 04:33:20;;;;;;;9.10;6.70;;;;;;;;;;5116751;27;20478;-70
2022/09/16 04:35:47;;;;;;;11.10;5.10;;;;;;;;;;5117347;27;20801;-69
2022/09/16 04:38:14;;;;;;;16.13;9.00;;;;;;;;;;5117369;27;20545;-68
2022/09/16 04:40:41;;;;;;;9.57;5.90;;;;;;;;;;5117405;27;20497;-70
2022/09/16 04:43:08;;;;;;;7.10;5.50;;;;;;;;;;5116799;27;20899;-70
2022/09/16 04:45:35;;;;;;;9.57;6.23;;;;;;;;;;5115807;27;20449;-70
2022/09/16 04:48:03;;;;;;;10.03;5.80;;;;;;;;;;5116764;27;20447;-70
2022/09/16 04:50:30;;;;;;;8.80;5.10;;;;;;;;;;5115649;27;20454;-70
2022/09/16 04:52:57;;;;;;;7.43;5.40;;;;;;;;;;5116240;27;21214;-70
2022/09/16 04:55:25;;;;;;;7.93;5.13;;;;;;;;;;5113818;27;20734;-71
2022/09/16 04:57:52;;;;;;;8.13;4.80;;;;;;;;;;5113948;27;20442;-69
2022/09/16 05:00:19;;;;;;;9.53;5.30;;;;;;;;;;5114939;27;20692;-69
2022/09/16 05:02:47;;;;;;;6.30;4.10;;;;;;;;;;5114471;27;20455;-70
2022/09/16 05:05:16;;;;;;;7.87;5.27;;;;;;;;;;5113402;27;20741;-70
2022/09/16 05:07:43;;;;;;;9.77;5.40;;;;;;;;;;5113407;27;20442;-70
2022/09/16 05:10:11;;;;;;;6.87;4.10;;;;;;;;;;5123255;27;20936;-71
2022/09/16 05:12:38;;;;;;;17.50;4.17;;;;;;;;;;5134343;27;20497;-70
2022/09/16 05:15:06;;;;;;;10.37;3.80;;;;;;;;;;5133318;27;20549;-70
2022/09/16 05:17:34;;;;;;;5.40;4.20;;;;;;;;;;5133078;27;20486;-70
2022/09/16 05:20:01;;;;;;;5.60;3.40;;;;;;;;;;5133876;27;20595;-70
2022/09/16 05:22:29;;;;;;;9.97;6.10;;;;;;;;;;5133184;27;20751;-69
2022/09/16 05:24:56;;;;;;;5.07;3.70;;;;;;;;;;5132227;27;20553;-70
2022/09/16 05:27:26;;;;;;;6.13;3.90;;;;;;;;;;5130162;27;20454;-69
2022/09/16 05:29:53;;;;;;;2.73;2.37;;;;;;;;;;5134045;27;20456;-69
2022/09/16 05:32:21;;;;;;;4.13;3.00;;;;;;;;;;5132715;27;20485;-70
2022/09/16 05:34:48;;;;;;;4.07;3.00;;;;;;;;;;5129796;27;20438;-70
2022/09/16 05:37:15;;;;;;;5.47;2.60;;;;;;;;;;5134682;27;20876;-70
2022/09/16 05:39:43;;;;;;;8.80;3.97;;;;;;;;;;5133417;27;20453;-70
2022/09/16 05:42:11;;;;;;;7.03;3.37;;;;;;;;;;5132102;27;21024;-70
2022/09/16 05:44:38;;;;;;;6.60;4.50;;;;;;;;;;5131362;27;20460;-70
2022/09/16 05:47:06;;;;;;;6.50;3.90;;;;;;;;;;5132224;27;20534;-69
2022/09/16 05:49:33;;;;;;;7.83;3.17;;;;;;;;;;5128644;27;21068;-69
2022/09/16 05:52:01;;;;;;;5.33;2.50;;;;;;;;;;5113400;27;20489;-69
2022/09/16 05:54:31;;;;;;;3.70;2.63;;;;;;;;;;5113430;27;20898;-69
2022/09/16 05:56:59;;;;;;;8.00;3.77;;;;;;;;;;5112556;27;20461;-69
2022/09/16 05:59:27;;;;;;;6.03;3.40;;;;;;;;;;5114027;27;20482;-70
2022/09/16 06:01:55;;;;;;;8.97;4.17;;;;;;;;;;5112988;27;20455;-69
2022/09/16 06:04:24;;;;;;;5.00;3.80;;;;;;;;;;5116865;27;20460;-70
2022/09/16 06:06:54;;;;;;;5.20;3.90;;;;;;;;;;5134736;27;20445;-71
2022/09/16 06:09:24;;;;;;;3.20;2.67;;;;;;;;;;5133334;27;20441;-71
2022/09/16 06:11:52;;;;;;;4.83;3.53;;;;;;;;;;5134501;27;20481;-70
2022/09/16 06:14:21;;;;;;;5.93;3.53;;;;;;;;;;5133487;27;20827;-70
2022/09/16 06:16:49;;;;;;;8.87;3.77;;;;;;;;;;5131390;27;20467;-70
2022/09/16 06:19:17;;;;;;;6.70;2.93;;;;;;;;;;5114714;27;20455;-70
2022/09/16 06:21:45;;;;;;;4.57;1.93;;;;;;;;;;5114602;27;20458;-70
2022/09/16 06:24:13;;;;;;;7.40;3.17;;;;;;;;;;5113448;27;20441;-70
2022/09/16 06:26:41;;;;;;;6.43;2.37;;;;;;;;;;5115638;27;20463;-71
2022/09/16 06:29:09;;;;;;;9.53;3.20;;;;;;;;;;5115084;27;20867;-71
2022/09/16 06:31:40;;;;;;;6.60;2.50;;;;;;;;;;5115468;27;20455;-70
2022/09/16 06:34:08;;;;;;;3.73;2.10;;;;;;;;;;5114779;27;20539;-70
2022/09/16 06:36:36;;;;;;;7.63;2.50;;;;;;;;;;5120668;27;20896;-69
2022/09/16 06:39:04;;;;;;;5.83;2.07;;;;;;;;;;5116304;27;20466;-69
2022/09/16 06:41:32;;;;;;;4.00;2.37;;;;;;;;;;5113997;27;20473;-69
2022/09/16 06:43:59;;;;;;;5.03;1.77;;;;;;;;;;5113970;27;20470;-69
2022/09/16 06:46:27;;;;;;;4.60;1.80;;;;;;;;;;5112803;27;20466;-70
2022/09/16 06:48:58;;;;;;;2.93;1.57;;;;;;;;;;5115894;27;20902;-69
2022/09/16 06:51:27;;;;;;;2.30;1.43;;;;;;;;;;5114123;27;20463;-69
2022/09/16 06:53:55;;;;;;;5.30;1.13;;;;;;;;;;5112008;27;20482;-69
2022/09/16 06:56:28;;;;;;;4.53;1.20;;;;;;;;;;5113205;27;20502;-71
2022/09/16 06:59:04;;;;;;;2.47;1.10;;;;;;;;;;5113425;27;20446;-71
2022/09/16 07:01:32;;;;;;;2.87;0.73;;;;;;;;;;5112618;27;20450;-74
2022/09/16 07:04:02;;;;;;;3.37;0.93;;;;;;;;;;5112328;27;20897;-71
2022/09/16 07:06:29;;;;;;;2.27;1.00;;;;;;;;;;5124683;27;20470;-69
2022/09/16 07:08:57;;;;;;;3.10;0.83;;;;;;;;;;5133766;27;20935;-69
2022/09/16 07:11:24;;;;;;;3.20;0.80;;;;;;;;;;5124124;27;20999;-69
2022/09/16 07:13:52;;;;;;;4.07;1.27;;;;;;;;;;5133219;27;20484;-72
2022/09/16 07:16:20;;;;;;;4.37;1.30;;;;;;;;;;5134049;27;20557;-69
2022/09/16 07:18:49;;;;;;;4.50;1.90;;;;;;;;;;5132923;27;20458;-70
2022/09/16 07:21:17;;;;;;;3.40;1.23;;;;;;;;;;5126214;27;20459;-69
2022/09/16 07:23:46;;;;;;;7.27;1.90;;;;;;;;;;5118177;27;20948;-69
2022/09/16 07:26:15;;;;;;;2.90;0.73;;;;;;;;;;5118541;27;20540;-70
2022/09/16 07:28:42;;;;;;;2.20;0.93;;;;;;;;;;5114783;27;20469;-69
2022/09/16 07:31:10;;;;;;;4.93;0.77;;;;;;;;;;5118408;27;20483;-69
2022/09/16 07:33:38;;;;;;;6.07;1.03;;;;;;;;;;5119934;27;20520;-69
2022/09/16 07:36:06;;;;;;;2.77;1.00;;;;;;;;;;5136116;27;20520;-69
2022/09/16 07:38:34;;;;;;;3.50;1.40;;;;;;;;;;5129395;27;20447;-69
2022/09/16 07:41:05;;;;;;;4.87;1.20;;;;;;;;;;5128659;27;20550;-70
2022/09/16 07:43:35;;;;;;;1.80;0.60;;;;;;;;;;5133233;27;20974;-71
2022/09/16 07:46:09;;;;;;;2.47;0.90;;;;;;;;;;5125043;27;20457;-69
2022/09/16 07:48:37;;;;;;;4.93;0.70;;;;;;;;;;5127338;27;20457;-69
2022/09/16 07:51:07;;;;;;;3.70;0.70;;;;;;;;;;5115379;27;20651;-69
2022/09/16 07:53:36;;;;;;;9.20;1.30;;;;;;;;;;5117204;27;20908;-69
2022/09/16 07:56:03;;;;;;;5.20;1.03;;;;;;;;;;5112279;27;20463;-69
2022/09/16 07:58:30;;;;;;;2.70;0.80;;;;;;;;;;5113245;27;20588;-68
2022/09/16 08:00:58;;;;;;;3.27;0.80;;;;;;;;;;5112680;27;21013;-68
2022/09/16 08:03:25;;;;;;;8.23;1.03;;;;;;;;;;5114806;27;20452;-68
2022/09/16 08:05:52;;;;;;;4.67;0.90;;;;;;;;;;5113114;27;20470;-70
2022/09/16 08:08:20;;;;;;;8.10;1.17;;;;;;;;;;5121674;27;20458;-68
2022/09/16 08:10:54;;;;;;;2.50;0.60;;;;;;;;;;5116073;27;20765;-70
2022/09/16 08:13:23;;;;;;;6.17;0.93;;;;;;;;;;5133273;27;20504;-70
2022/09/16 08:15:50;;;;;;;16.63;1.50;;;;;;;;;;5112839;27;20439;-69
2022/09/16 08:18:18;;;;;;;5.67;0.93;;;;;;;;;;5112657;27;20963;-69
2022/09/16 08:20:46;;;;;;;2.27;0.80;;;;;;;;;;5115083;27;20442;-69
2022/09/16 08:23:13;;;;;;;6.70;0.80;;;;;;;;;;5116924;27;20450;-69
2022/09/16 08:25:42;;;;;;;5.00;0.97;;;;;;;;;;5117353;27;20442;-69
2022/09/16 08:28:16;;;;;;;1.97;0.87;;;;;;;;;;5129133;27;20474;-70
2022/09/16 08:30:48;;;;;;;3.77;1.33;;;;;;;;;;5135871;27;20450;-69
2022/09/16 08:33:23;;;;;;;5.83;1.00;;;;;;;;;;5129956;27;20963;-69
2022/09/16 08:35:58;;;;;;;2.13;0.93;;;;;;;;;;5115390;27;20443;-69
2022/09/16 08:38:29;;;;;;;6.40;1.00;;;;;;;;;;5114468;27;20526;-69
2022/09/16 08:41:04;;;;;;;4.97;1.20;;;;;;;;;;5134307;27;20481;-69
2022/09/16 08:43:35;;;;;;;6.63;1.07;;;;;;;;;;5135071;27;20456;-69
2022/09/16 08:46:08;;;;;;;5.37;1.60;;;;;;;;;;5135275;27;20477;-69
2022/09/16 08:48:39;;;;;;;2.30;0.90;;;;;;;;;;5135045;27;20557;-69
2022/09/16 08:51:09;;;;;;;7.13;2.73;;;;;;;;;;5135645;27;20510;-69
2022/09/16 08:53:37;;;;;;;3.73;1.10;;;;;;;;;;5134962;27;20520;-69
2022/09/16 08:56:07;;;;;;;4.43;1.00;;;;;;;;;;5135767;27;21110;-69
2022/09/16 08:58:38;;;;;;;2.97;0.60;;;;;;;;;;5135948;27;20549;-69
2022/09/16 09:01:13;;;;;;;2.53;1.10;;;;;;;;;;5135859;27;20461;-69
2022/09/16 09:03:41;;;;;;;5.40;1.47;;;;;;;;;;5126001;27;20556;-69
2022/09/16 09:06:15;;;;;;;4.20;1.30;;;;;;;;;;5130770;27;20493;-70
2022/09/16 09:08:47;;;;;;;5.90;0.90;;;;;;;;;;5134021;27;20505;-69
2022/09/16 09:11:17;;;;;;;3.40;1.07;;;;;;;;;;5126217;27;20457;-68
2022/09/16 09:13:52;;;;;;;8.37;1.13;;;;;;;;;;5129630;27;20762;-69
2022/09/16 09:16:24;;;;;;;2.83;0.87;;;;;;;;;;5134702;27;20925;-69
2022/09/16 09:18:57;;;;;;;4.70;1.27;;;;;;;;;;5134293;27;20456;-68
2022/09/16 09:21:26;;;;;;;8.57;1.37;;;;;;;;;;5134408;27;20456;-68
2022/09/16 09:24:00;;;;;;;7.53;1.20;;;;;;;;;;5130432;27;20449;-68
2022/09/16 09:26:32;;;;;;;5.40;0.80;;;;;;;;;;5136850;27;20449;-69
2022/09/16 09:29:23;;;;;;;8.83;1.50;;;;;;;;;;5116931;27;20466;-70
2022/09/16 09:32:05;;;;;;;6.77;1.67;;;;;;;;;;5102278;27;20443;-68
2022/09/16 09:34:43;;;;;;;9.30;1.20;;;;;;;;;;5114255;27;21863;-67
2022/09/16 09:37:21;;;;;;;8.70;1.33;;;;;;;;;;5125707;27;20497;-69
2022/09/16 09:39:56;;;;;;;8.80;1.37;;;;;;;;;;5134926;27;20760;-68
2022/09/16 09:42:26;;;;;;;5.90;1.07;;;;;;;;;;5129358;27;20514;-69
2022/09/16 09:44:57;;;;;;;4.93;1.03;;;;;;;;;;5130554;27;20581;-68
2022/09/16 09:47:26;;;;;;;4.17;1.40;;;;;;;;;;5123795;27;20462;-68
2022/09/16 09:49:55;;;;;;;9.03;1.60;;;;;;;;;;5126836;27;20462;-68
2022/09/16 09:52:26;;;;;;;5.17;1.10;;;;;;;;;;5123106;27;21513;-70
2022/09/16 09:54:54;;;;;;;6.13;2.00;;;;;;;;;;5121635;27;20458;-69
2022/09/16 09:57:25;;;;;;;4.93;0.80;;;;;;;;;;5133965;27;20468;-68
2022/09/16 09:59:56;;;;;;;5.93;1.17;;;;;;;;;;5134109;27;20497;-69
2022/09/16 10:02:24;;;;;;;5.07;0.97;;;;;;;;;;5132008;27;20467;-69
2022/09/16 10:04:52;;;;;;;4.07;1.30;;;;;;;;;;5120462;27;20517;-69
2022/09/16 10:07:20;;;;;;;5.33;1.23;;;;;;;;;;5121747;27;20514;-69
2022/09/16 10:10:00;;;;;;;7.70;1.30;;;;;;;;;;5131394;27;20466;-69
2022/09/16 10:12:29;;;;;;;5.80;1.73;;;;;;;;;;5122027;27;20937;-69
2022/09/16 10:14:57;;;;;;;4.50;0.73;;;;;;;;;;5133202;27;20457;-68
2022/09/16 10:17:25;;;;;;;5.03;1.37;;;;;;;;;;5127799;27;20554;-68
2022/09/16 10:19:58;;;;;;;2.70;0.97;;;;;;;;;;5115686;27;20470;-68
2022/09/16 10:22:53;;;;;;;5.70;0.70;;;;;;;;;;5120293;27;20457;-69
2022/09/16 10:25:25;;;;;;;3.07;1.10;;;;;;;;;;5119923;27;20465;-69
2022/09/16 10:28:02;;;;;;;4.27;1.37;;;;;;;;;;5124310;27;20474;-67
2022/09/16 10:30:33;;;;;;;12.50;1.97;;;;;;;;;;5132284;27;20748;-67
2022/09/16 10:33:11;;;;;;;10.90;2.83;;;;;;;;;;5125211;27;20534;-68
2022/09/16 10:35:53;;;;;;;9.10;1.10;;;;;;;;;;5117808;27;20458;-69
2022/09/16 10:38:23;;;;;;;7.03;1.33;;;;;;;;;;5122570;27;20545;-68
2022/09/16 10:40:59;;;;;;;2.30;0.70;;;;;;;;;;5113939;27;20455;-69
2022/09/16 10:43:28;;;;;;;12.60;1.80;;;;;;;;;;5129109;27;20922;-69
2022/09/16 10:45:55;;;;;;;3.40;1.00;;;;;;;;;;5134217;27;20464;-70
2022/09/16 10:48:24;;;;;;;5.17;1.10;;;;;;;;;;5133327;27;20553;-68
2022/09/16 10:50:56;;;;;;;4.30;0.60;;;;;;;;;;5132024;27;20486;-69
2022/09/16 10:53:35;;;;;;;8.00;3.57;;;;;;;;;;5132742;27;20489;-68
2022/09/16 10:56:04;;;;;;;3.97;0.70;;;;;;;;;;5125252;27;20450;-67
2022/09/16 10:58:32;;;;;;;4.47;1.00;;;;;;;;;;5113350;27;20459;-69
2022/09/16 11:01:11;;;;;;;4.97;1.23;;;;;;;;;;5117389;27;20750;-69
2022/09/16 11:03:41;;;;;;;7.37;1.37;;;;;;;;;;5112095;27;20458;-69
2022/09/16 11:06:26;;;;;;;2.73;0.80;;;;;;;;;;5128058;27;20458;-71
2022/09/16 11:09:02;;;;;;;7.00;1.60;;;;;;;;;;5132124;27;20453;-68
2022/09/16 11:11:39;;;;;;;4.57;1.47;;;;;;;;;;5131832;27;21042;-69
2022/09/16 11:14:14;;;;;;;5.33;1.10;;;;;;;;;;5132129;27;20485;-70
2022/09/16 11:16:48;;;;;;;2.80;1.07;;;;;;;;;;5128998;27;20510;-70
2022/09/16 11:19:24;;;;;;;1.93;0.80;;;;;;;;;;5119037;27;20513;-71
2022/09/16 11:22:02;;;;;;;3.80;1.03;;;;;;;;;;5125345;27;20449;-69
2022/09/16 11:24:36;;;;;;;2.80;0.70;;;;;;;;;;5110240;27;20480;-68
2022/09/16 11:27:08;;;;;;;2.33;0.90;;;;;;;;;;5117851;27;20490;-68
2022/09/16 11:29:49;;;;;;;4.87;0.83;;;;;;;;;;5130173;27;20726;-70
2022/09/16 11:32:21;;;;;;;1.97;0.63;;;;;;;;;;5126421;27;20473;-70
2022/09/16 11:34:58;;;;;;;5.50;1.00;;;;;;;;;;5110797;27;20508;-69
2022/09/16 11:37:37;;;;;;;3.03;0.60;;;;;;;;;;5114943;27;20465;-74
2022/09/16 11:40:10;;;;;;;3.03;0.87;;;;;;;;;;5124679;27;20542;-69
2022/09/16 11:42:43;;;;;;;1.70;0.60;;;;;;;;;;5121956;27;20476;-70
2022/09/16 11:45:30;;;;;;;2.63;1.10;;;;;;;;;;5122627;27;20524;-71
2022/09/16 11:48:03;;;;;;;2.33;0.53;;;;;;;;;;5111390;27;20443;-69
2022/09/16 11:50:39;;;;;;;4.10;1.00;;;;;;;;;;5111218;27;20521;-70
2022/09/16 11:53:46;;;;;;;4.40;1.00;;;;;;;;;;5112543;27;20767;-70
2022/09/16 11:56:20;;;;;;;2.80;0.80;;;;;;;;;;5131107;27;20506;-70
2022/09/16 11:58:49;;;;;;;3.30;1.00;;;;;;;;;;5115459;27;20455;-69
2022/09/16 12:01:26;;;;;;;3.53;1.00;;;;;;;;;;5128647;27;20901;-70
2022/09/16 12:03:56;;;;;;;2.70;1.20;;;;;;;;;;5128654;27;20862;-68
2022/09/16 12:06:25;;;;;;;8.37;1.10;;;;;;;;;;5115565;27;20453;-69
2022/09/16 12:09:19;;;;;;;2.83;0.80;;;;;;;;;;5114491;27;20490;-69
2022/09/16 12:11:52;;;;;;;2.37;1.33;;;;;;;;;;5115909;27;20443;-69
2022/09/16 12:14:21;;;;;;;4.60;1.27;;;;;;;;;;5118549;27;20912;-69
2022/09/16 12:16:53;;;;;;;6.93;0.67;;;;;;;;;;5117199;27;20462;-70
2022/09/16 12:19:21;;;;;;;4.63;1.03;;;;;;;;;;5113128;27;20458;-71
2022/09/16 12:21:51;;;;;;;4.67;1.00;;;;;;;;;;5125669;27;20462;-70
2022/09/16 12:24:24;;;;;;;3.97;0.70;;;;;;;;;;5122207;27;20869;-70
2022/09/16 12:26:53;;;;;;;1.50;0.80;;;;;;;;;;5119650;27;20534;-69
2022/09/16 12:29:25;;;;;;;3.40;0.93;;;;;;;;;;5118781;27;20492;-71
2022/09/16 12:31:59;;;;;;;7.33;1.07;;;;;;;;;;5135532;27;20506;-71
2022/09/16 12:34:30;;;;;;;2.30;0.80;;;;;;;;;;5114526;27;20482;-68
2022/09/16 12:37:01;;;;;;;4.77;0.97;;;;;;;;;;5114655;27;20942;-70
2022/09/16 12:39:32;;;;;;;4.80;0.73;;;;;;;;;;5115295;27;20629;-71
2022/09/16 12:42:16;;;;;;;4.03;1.53;;;;;;;;;;5125770;27;20463;-70
2022/09/16 12:44:57;;;;;;;1.90;0.87;;;;;;;;;;5115799;27;21121;-71
2022/09/16 12:47:37;;;;;;;2.60;0.80;;;;;;;;;;5119909;27;20549;-71
2022/09/16 12:50:18;;;;;;;4.10;1.07;;;;;;;;;;5115976;27;20490;-70
2022/09/16 12:53:02;;;;;;;2.60;0.90;;;;;;;;;;5114904;27;20494;-70
2022/09/16 12:55:44;;;;;;;2.10;0.70;;;;;;;;;;5114454;27;20465;-70
2022/09/16 12:58:29;;;;;;;1.70;0.77;;;;;;;;;;5115727;27;20742;-70
2022/09/16 13:01:01;;;;;;;3.30;0.90;;;;;;;;;;5114713;27;20478;-70
2022/09/16 13:03:31;;;;;;;6.47;3.33;;;;;;;;;;5113306;27;20477;-70
2022/09/16 13:05:59;;;;;;;2.60;1.20;;;;;;;;;;5111467;27;20592;-69
2022/09/16 13:08:28;;;;;;;2.97;1.27;;;;;;;;;;5115525;27;20480;-68
2022/09/16 13:10:58;;;;;;;2.43;0.80;;;;;;;;;;5114478;27;20526;-70
2022/09/16 13:13:31;;;;;;;6.33;0.80;;;;;;;;;;5129509;27;20473;-69
2022/09/16 13:15:59;;;;;;;5.00;0.90;;;;;;;;;;5135218;27;20555;-69
2022/09/16 13:18:38;;;;;;;6.50;1.20;;;;;;;;;;5122921;27;20450;-69
2022/09/16 13:21:08;;;;;;;4.50;0.90;;;;;;;;;;5130325;27;20441;-69
2022/09/16 13:23:36;;;;;;;2.80;0.67;;;;;;;;;;5133795;27;20470;-69
2022/09/16 13:26:06;;;;;;;6.30;1.07;;;;;;;;;;5134290;27;20450;-68
2022/09/16 13:28:37;;;;;;;5.60;1.10;;;;;;;;;;5135013;27;20490;-69
2022/09/16 13:31:25;;;;;;;3.90;0.90;;;;;;;;;;5135974;27;20745;-70
2022/09/16 13:34:15;;;;;;;3.27;0.80;;;;;;;;;;5126022;28;20486;-69
2022/09/16 13:36:44;;;;;;;2.00;0.70;;;;;;;;;;5123130;27;20749;-68
2022/09/16 13:39:14;;;;;;;2.83;1.00;;;;;;;;;;5121922;27;20459;-70
2022/09/16 13:41:44;;;;;;;1.70;0.73;;;;;;;;;;5124269;27;20517;-69
2022/09/16 13:44:39;;;;;;;4.50;0.80;;;;;;;;;;5115480;27;20474;-68
2022/09/16 13:47:18;;;;;;;5.13;1.03;;;;;;;;;;5123121;27;20515;-69
2022/09/16 13:49:49;;;;;;;7.33;1.83;;;;;;;;;;5122435;27;20930;-70
2022/09/16 13:52:22;;;;;;;7.23;1.10;;;;;;;;;;5127834;27;20456;-69
2022/09/16 13:54:50;;;;;;;5.63;1.10;;;;;;;;;;5127274;27;20533;-69
2022/09/16 13:57:36;;;;;;;5.90;0.93;;;;;;;;;;5125988;27;20514;-71
2022/09/16 14:00:11;;;;;;;7.57;1.60;;;;;;;;;;5133934;27;20513;-71
2022/09/16 14:02:56;;;;;;;2.23;0.70;;;;;;;;;;5130765;27;20487;-69
2022/09/16 14:05:33;;;;;;;2.13;1.07;;;;;;;;;;5123366;27;21204;-69
2022/09/16 14:08:07;;;;;;;3.17;0.70;;;;;;;;;;5132035;27;20845;-69
2022/09/16 14:10:40;;;;;;;4.67;1.30;;;;;;;;;;5131245;27;20535;-68
2022/09/16 14:13:12;;;;;;;4.50;1.30;;;;;;;;;;5123855;27;20521;-68
2022/09/16 14:15:43;;;;;;;4.60;1.33;;;;;;;;;;5116021;27;20485;-69
2022/09/16 14:18:31;;;;;;;3.37;0.90;;;;;;;;;;5114047;27;20487;-69
2022/09/16 14:21:05;;;;;;;3.10;1.10;;;;;;;;;;5114242;27;20535;-68
2022/09/16 14:23:35;;;;;;;5.03;1.07;;;;;;;;;;5132002;27;20480;-68
2022/09/16 14:26:11;;;;;;;3.10;1.13;;;;;;;;;;5134433;27;20499;-69
2022/09/16 14:28:41;;;;;;;10.40;1.60;;;;;;;;;;5133201;27;20479;-69
2022/09/16 14:31:11;;;;;;;5.70;1.10;;;;;;;;;;5123673;27;20808;-69
2022/09/16 14:33:44;;;;;;;7.70;2.03;;;;;;;;;;5125991;27;21079;-68
2022/09/16 14:36:17;;;;;;;4.30;1.23;;;;;;;;;;5116030;27;20485;-69
2022/09/16 14:38:53;;;;;;;6.00;1.73;;;;;;;;;;5127850;27;20905;-69
2022/09/16 14:41:24;;;;;;;11.20;1.13;;;;;;;;;;5132704;27;20719;-68
2022/09/16 14:43:54;;;;;;;2.93;1.07;;;;;;;;;;5133596;27;21028;-69
2022/09/16 14:46:21;;;;;;;6.70;1.00;;;;;;;;;;5132178;27;20800;-69
2022/09/16 14:48:48;;;;;;;3.47;1.00;;;;;;;;;;5132019;27;20449;-70
2022/09/16 14:51:21;;;;;;;14.83;3.30;;;;;;;;;;5133111;27;21116;-71
2022/09/16 14:53:55;;;;;;;4.77;0.97;;;;;;;;;;5119627;27;20478;-71
2022/09/16 14:56:24;;;;;;;3.43;0.87;;;;;;;;;;5113760;27;20446;-70
2022/09/16 15:01:39;;;;;;;7.00;1.13;;;;;;;;;;5122200;27;20921;-72
2022/09/16 15:04:10;;;;;;;4.93;1.37;;;;;;;;;;5125192;27;20554;-70
2022/09/16 15:06:48;;;;;;;8.30;1.33;;;;;;;;;;5127918;27;20495;-70
2022/09/16 15:09:29;;;;;;;5.10;1.00;;;;;;;;;;5123904;27;20481;-72